Terminal Aerodrome Forecast
Issued by NWS Sterling, VA

Current Version | Previous Version | Graphics & Text | Print | Product List | Glossary On
Versions: 1 2 3 4 5 6 7 8 9 10 11 12 13 14 15 16 17 18 19
589
FTUS41 KLWX 251735
TAFMRB
TAF
KMRB 251735Z 2518/2618 25010KT P6SM SCT250
     FM252000 18004KT P6SM OVC050
     FM260300 VRB03KT 5SM BR OVC030
     FM260400 09004KT 4SM BR OVC015
     FM260600 09005KT 4SM BR OVC008=

USA.gov is the U.S. government's official web portal to all federal, state and local government web resources and services.